createdAt,value
2017-03-08T00:00:00.186Z,6.07
2017-03-08T00:00:26.665Z,6.07
2017-03-08T00:00:48.397Z,6.04
2017-03-08T00:01:14.876Z,6.10
2017-03-08T00:01:36.571Z,6.12
2017-03-08T00:02:43.866Z,6.06
2017-03-08T00:03:05.579Z,6.03
2017-03-08T00:03:32.057Z,6.00
2017-03-08T00:03:53.850Z,5.98
2017-03-08T00:05:01.130Z,5.93
2017-03-08T00:05:22.844Z,5.95
2017-03-08T00:05:44.561Z,5.93
2017-03-08T00:06:06.262Z,5.91
2017-03-08T00:06:27.965Z,5.89
2017-03-08T00:06:54.436Z,5.88
2017-03-08T00:07:16.151Z,5.88
2017-03-08T00:07:42.628Z,5.89
2017-03-08T00:08:04.342Z,5.90
2017-03-08T00:08:26.041Z,5.87
2017-03-08T00:08:47.753Z,5.87
2017-03-08T00:09:09.450Z,5.88
2017-03-08T00:09:40.708Z,5.86
2017-03-08T00:10:02.418Z,5.88
2017-03-08T00:10:28.915Z,5.92
2017-03-08T00:10:50.625Z,5.93
2017-03-08T00:11:12.338Z,5.95
2017-03-08T00:11:48.380Z,5.93
2017-03-08T00:12:15.388Z,5.95
2017-03-08T00:12:37.081Z,5.99
2017-03-08T00:13:03.570Z,5.99
2017-03-08T00:13:25.283Z,5.98
2017-03-08T00:13:51.777Z,5.98
2017-03-08T00:14:13.474Z,5.96
2017-03-08T00:14:39.954Z,5.95
2017-03-08T00:15:01.677Z,5.98
2017-03-08T00:15:23.379Z,5.97
2017-03-08T00:15:49.859Z,5.97
2017-03-08T00:16:11.550Z,5.98
2017-03-08T00:16:33.251Z,5.99
2017-03-08T00:16:59.725Z,5.99
2017-03-08T00:17:21.418Z,5.93
2017-03-08T00:17:43.121Z,5.96
2017-03-08T00:18:10.586Z,5.93
2017-03-08T00:18:32.288Z,5.93
2017-03-08T00:18:53.993Z,5.96
2017-03-08T00:19:15.695Z,5.90
2017-03-08T00:19:37.415Z,5.95
2017-03-08T00:20:03.926Z,5.96
2017-03-08T00:20:25.630Z,5.98
2017-03-08T00:21:32.906Z,5.98
2017-03-08T00:21:54.598Z,5.96
2017-03-08T00:22:16.305Z,5.97
2017-03-08T00:22:38.002Z,5.95
2017-03-08T00:22:59.724Z,5.91
2017-03-08T00:23:21.532Z,5.89
2017-03-08T00:23:48.016Z,5.89
2017-03-08T00:24:09.708Z,5.89
2017-03-08T00:24:36.192Z,5.90
2017-03-08T00:24:57.892Z,5.96
2017-03-08T00:25:24.365Z,5.98
2017-03-08T00:25:46.160Z,5.98
2017-03-08T00:26:07.864Z,5.96
2017-03-08T00:27:15.139Z,5.89
2017-03-08T00:28:08.164Z,5.87
2017-03-08T00:28:29.868Z,5.84
2017-03-08T00:28:51.575Z,5.84
2017-03-08T00:29:22.841Z,5.85
2017-03-08T00:29:44.530Z,5.84
2017-03-08T00:30:51.814Z,5.83
2017-03-08T00:31:13.517Z,5.86
2017-03-08T00:31:39.991Z,5.90
2017-03-08T00:32:01.703Z,5.89
2017-03-08T00:32:23.402Z,5.88
2017-03-08T00:32:54.659Z,5.88
2017-03-08T00:33:16.369Z,5.88
2017-03-08T00:33:42.849Z,5.86
2017-03-08T00:34:04.559Z,5.85
2017-03-08T00:34:26.268Z,5.83
2017-03-08T00:34:47.969Z,5.84
2017-03-08T00:35:09.671Z,5.80
2017-03-08T00:35:36.140Z,5.79
2017-03-08T00:35:57.842Z,5.79
2017-03-08T00:36:24.314Z,5.76
2017-03-08T00:36:46.022Z,5.77
2017-03-08T00:37:07.726Z,5.76
2017-03-08T00:37:38.978Z,5.78
2017-03-08T00:38:00.666Z,5.79
2017-03-08T00:38:22.462Z,5.76
2017-03-08T00:38:44.166Z,5.76
2017-03-08T00:39:05.870Z,5.78
2017-03-08T00:39:32.350Z,5.77
2017-03-08T00:39:54.043Z,5.76
2017-03-08T00:40:25.292Z,5.78
2017-03-08T00:40:47.018Z,5.77
2017-03-08T00:41:13.579Z,5.80
2017-03-08T00:41:35.300Z,5.83
2017-03-08T00:41:57.017Z,5.87
2017-03-08T00:42:23.497Z,5.86
2017-03-08T00:42:45.188Z,5.83
2017-03-08T00:43:11.670Z,5.82
2017-03-08T00:43:33.378Z,5.81
2017-03-08T00:43:59.859Z,5.84
2017-03-08T00:44:21.564Z,5.84
2017-03-08T00:44:48.054Z,5.82
2017-03-08T00:45:09.750Z,5.79
2017-03-08T00:45:31.488Z,5.77
2017-03-08T00:45:57.967Z,5.77
2017-03-08T00:46:19.658Z,5.75
2017-03-08T00:46:46.133Z,5.79
2017-03-08T00:47:07.822Z,5.79
2017-03-08T00:47:34.301Z,5.74
2017-03-08T00:47:56.012Z,5.72
2017-03-08T00:48:22.485Z,5.71
2017-03-08T00:48:44.176Z,5.72
2017-03-08T00:49:10.656Z,5.72
2017-03-08T00:49:32.461Z,5.74
2017-03-08T00:49:54.173Z,5.74
2017-03-08T00:50:20.654Z,5.76
2017-03-08T00:50:42.381Z,5.75
2017-03-08T00:51:04.080Z,5.76
2017-03-08T00:51:35.349Z,5.73
2017-03-08T00:51:57.033Z,5.74
2017-03-08T00:52:18.733Z,5.74
2017-03-08T00:52:40.439Z,5.73
2017-03-08T00:53:02.188Z,5.76
2017-03-08T00:53:28.634Z,5.73
2017-03-08T00:53:55.122Z,5.73
2017-03-08T00:54:21.605Z,5.71
2017-03-08T00:54:43.297Z,5.73
2017-03-08T00:55:09.776Z,5.72
2017-03-08T00:55:31.475Z,5.72
2017-03-08T00:55:57.946Z,5.72
2017-03-08T00:56:19.649Z,5.73
2017-03-08T00:56:41.441Z,5.76
2017-03-08T00:57:07.907Z,5.75
2017-03-08T00:57:29.699Z,5.77
2017-03-08T00:57:56.203Z,5.74
2017-03-08T00:58:17.913Z,5.73
2017-03-08T00:58:49.179Z,5.77
2017-03-08T00:59:10.867Z,5.77
2017-03-08T00:59:37.361Z,5.79
2017-03-08T00:59:59.150Z,5.75
2017-03-08T01:00:20.851Z,5.75
2017-03-08T01:00:47.331Z,5.73
2017-03-08T01:01:09.027Z,5.74
2017-03-08T01:01:40.278Z,5.71
2017-03-08T01:02:28.449Z,5.70
2017-03-08T01:02:50.146Z,5.72
2017-03-08T01:03:11.856Z,5.73
2017-03-08T01:03:38.345Z,5.73
2017-03-08T01:04:00.030Z,5.72
2017-03-08T01:04:21.747Z,5.75
2017-03-08T01:04:48.227Z,5.75
2017-03-08T01:05:09.921Z,5.74
2017-03-08T01:05:41.169Z,5.75
2017-03-08T01:06:02.893Z,5.74
2017-03-08T01:06:29.373Z,5.76
2017-03-08T01:06:51.165Z,5.76
2017-03-08T01:07:12.879Z,5.78
2017-03-08T01:07:39.327Z,5.80
2017-03-08T01:08:01.025Z,5.80
2017-03-08T01:08:27.504Z,5.80
2017-03-08T01:08:49.204Z,5.80
2017-03-08T01:09:15.687Z,5.78
2017-03-08T01:09:37.379Z,5.78
2017-03-08T01:09:59.081Z,5.78
2017-03-08T01:10:25.661Z,5.78
2017-03-08T01:10:47.468Z,5.78
2017-03-08T01:11:13.932Z,5.80
2017-03-08T01:11:35.639Z,5.79
2017-03-08T01:11:57.342Z,5.80
2017-03-08T01:12:33.366Z,5.81
2017-03-08T01:13:00.385Z,5.85
2017-03-08T01:13:22.093Z,5.82
2017-03-08T01:13:53.353Z,5.79
2017-03-08T01:14:15.048Z,5.82
2017-03-08T01:14:46.307Z,5.81
2017-03-08T01:15:08.013Z,5.79
2017-03-08T01:15:39.285Z,5.79
2017-03-08T01:16:00.988Z,5.80
2017-03-08T01:16:27.477Z,5.77
2017-03-08T01:16:49.174Z,5.74
2017-03-08T01:17:15.648Z,5.70
2017-03-08T01:17:37.368Z,5.65
2017-03-08T01:18:03.857Z,5.67
2017-03-08T01:18:25.621Z,5.65
2017-03-08T01:18:52.096Z,5.64
2017-03-08T01:19:13.795Z,5.63
2017-03-08T01:19:40.275Z,5.63
2017-03-08T01:20:11.536Z,5.62
2017-03-08T01:20:33.219Z,5.61
2017-03-08T01:21:04.470Z,5.63
2017-03-08T01:21:26.187Z,5.62
2017-03-08T01:22:28.698Z,5.70
2017-03-08T01:22:50.403Z,5.69
2017-03-08T01:23:12.112Z,5.68
2017-03-08T01:23:43.399Z,5.61
2017-03-08T01:24:05.069Z,5.61
2017-03-08T01:24:26.829Z,5.63
2017-03-08T01:24:53.308Z,5.65
2017-03-08T01:25:15.007Z,5.66
2017-03-08T01:25:36.715Z,5.65
2017-03-08T01:25:58.412Z,5.65
2017-03-08T01:26:20.118Z,5.62
2017-03-08T01:26:46.601Z,5.63
2017-03-08T01:27:08.310Z,5.62
2017-03-08T01:27:30.031Z,5.61
2017-03-08T01:28:01.277Z,5.58
2017-03-08T01:28:22.981Z,5.58
2017-03-08T01:28:54.230Z,5.59
2017-03-08T01:29:15.944Z,5.64
2017-03-08T01:29:42.420Z,5.64
2017-03-08T01:30:04.110Z,5.61
2017-03-08T01:30:25.904Z,5.64
2017-03-08T01:30:52.377Z,5.64
2017-03-08T01:31:14.081Z,5.60
2017-03-08T01:31:35.795Z,5.56
2017-03-08T01:32:07.038Z,5.52
2017-03-08T01:32:28.740Z,5.47
2017-03-08T01:32:50.449Z,5.43
2017-03-08T01:33:21.702Z,5.42
2017-03-08T01:33:43.406Z,5.40
2017-03-08T01:34:05.110Z,5.36
2017-03-08T01:34:31.577Z,5.32
2017-03-08T01:34:53.269Z,5.28
2017-03-08T01:35:15.070Z,5.28
2017-03-08T01:35:46.327Z,5.29
2017-03-08T01:36:08.022Z,5.33
2017-03-08T01:36:34.491Z,5.30
2017-03-08T01:36:56.215Z,5.32
2017-03-08T01:37:17.916Z,5.30
2017-03-08T01:37:44.411Z,5.28
2017-03-08T01:38:06.117Z,5.28
2017-03-08T01:38:32.595Z,5.26
2017-03-08T01:38:54.318Z,5.23
2017-03-08T01:39:16.015Z,5.23
2017-03-08T01:39:52.050Z,5.24
2017-03-08T01:40:14.272Z,5.20
2017-03-08T01:40:36.002Z,5.23
2017-03-08T01:40:57.700Z,5.24
2017-03-08T01:41:24.202Z,5.23
2017-03-08T01:41:45.887Z,5.23
2017-03-08T01:42:12.365Z,5.20
2017-03-08T01:42:34.194Z,5.18
2017-03-08T01:42:55.898Z,5.18
2017-03-08T01:43:22.378Z,5.20
2017-03-08T01:44:24.797Z,5.15
2017-03-08T01:44:46.556Z,5.17
2017-03-08T01:45:13.051Z,5.18
2017-03-08T01:45:37.293Z,5.18
2017-03-08T01:45:59.150Z,5.15
2017-03-08T01:47:36.877Z,5.12
2017-03-08T01:47:58.736Z,5.09
2017-03-08T01:48:53.859Z,5.06
2017-03-08T01:49:20.539Z,5.02
2017-03-08T01:49:43.181Z,5.03
2017-03-08T01:50:14.544Z,5.04
2017-03-08T01:51:43.594Z,5.06
2017-03-08T01:52:11.235Z,5.07
2017-03-08T01:52:42.459Z,5.08
2017-03-08T01:54:23.985Z,5.15
2017-03-08T01:54:45.777Z,5.07
2017-03-08T01:55:07.614Z,5.05
2017-03-08T01:55:30.120Z,5.06
2017-03-08T01:56:06.066Z,5.06
2017-03-08T01:56:36.044Z,5.04
2017-03-08T01:56:57.949Z,5.02
2017-03-08T01:57:52.093Z,5.03
2017-03-08T01:58:14.957Z,5.00
2017-03-08T01:58:36.868Z,4.98
2017-03-08T01:58:58.705Z,4.99
2017-03-08T01:59:20.793Z,4.99
2017-03-08T02:00:30.659Z,5.00
2017-03-08T02:00:52.507Z,5.01
2017-03-08T02:01:14.462Z,4.97
2017-03-08T02:01:36.771Z,4.94
2017-03-08T02:02:01.483Z,4.91
2017-03-08T02:02:28.869Z,4.89
2017-03-08T02:02:50.602Z,4.92
2017-03-08T02:03:12.798Z,4.91
2017-03-08T02:03:37.535Z,4.93
2017-03-08T02:04:01.342Z,4.94
2017-03-08T02:04:29.070Z,4.90
2017-03-08T02:04:55.838Z,4.87
2017-03-08T02:05:17.768Z,4.87
2017-03-08T02:05:45.180Z,4.89
2017-03-08T02:06:49.376Z,4.87
2017-03-08T02:07:42.174Z,4.87
2017-03-08T02:08:16.497Z,4.88
2017-03-08T02:08:43.706Z,4.87
2017-03-08T02:09:15.274Z,4.88
2017-03-08T02:11:36.326Z,4.87
2017-03-08T02:12:02.061Z,4.86
2017-03-08T02:12:24.105Z,4.87
2017-03-08T02:12:51.560Z,4.89
2017-03-08T02:13:20.074Z,4.87
2017-03-08T02:14:30.347Z,4.86
2017-03-08T02:15:19.010Z,4.94
2017-03-08T02:16:28.385Z,4.98
2017-03-08T02:16:55.446Z,4.96
2017-03-08T02:17:25.838Z,4.91
2017-03-08T02:17:58.203Z,4.91
2017-03-08T02:18:20.038Z,4.94
2017-03-08T02:18:41.760Z,4.96
2017-03-08T02:19:03.707Z,4.98
2017-03-08T02:19:25.616Z,4.99
2017-03-08T02:20:28.139Z,4.95
2017-03-08T02:20:49.898Z,4.92
2017-03-08T02:21:11.813Z,4.98
2017-03-08T02:21:33.568Z,4.97
2017-03-08T02:21:58.568Z,4.97
2017-03-08T02:22:23.356Z,4.97
2017-03-08T02:22:46.409Z,4.97
2017-03-08T02:23:46.015Z,4.96
2017-03-08T02:24:07.946Z,4.94
2017-03-08T02:24:34.866Z,4.91
2017-03-08T02:24:57.763Z,4.87
2017-03-08T02:25:19.551Z,4.86
2017-03-08T02:25:41.310Z,4.90
2017-03-08T02:26:03.172Z,4.91
2017-03-08T02:26:25.145Z,4.89
2017-03-08T02:26:49.780Z,4.88
2017-03-08T02:27:11.569Z,4.86
2017-03-08T02:27:33.540Z,4.83
2017-03-08T02:27:55.728Z,4.85
2017-03-08T02:28:19.221Z,4.83
2017-03-08T02:28:41.020Z,4.84
2017-03-08T02:29:02.808Z,4.85
2017-03-08T02:29:56.999Z,4.84
2017-03-08T02:30:21.425Z,4.85
2017-03-08T02:30:49.326Z,4.84
2017-03-08T02:31:22.298Z,4.83
2017-03-08T02:31:44.090Z,4.80
2017-03-08T02:32:05.976Z,4.83
2017-03-08T02:32:42.109Z,4.78
2017-03-08T02:33:27.714Z,4.75
2017-03-08T02:33:54.209Z,4.74
2017-03-08T02:34:20.803Z,4.73
2017-03-08T02:34:47.730Z,4.73
2017-03-08T02:35:12.271Z,4.75
2017-03-08T02:35:34.872Z,4.77
2017-03-08T02:36:00.144Z,4.81
2017-03-08T02:36:24.741Z,4.86
2017-03-08T02:36:46.548Z,4.88
2017-03-08T02:37:08.426Z,4.89
2017-03-08T02:37:30.215Z,4.93
2017-03-08T02:37:52.144Z,4.91
2017-03-08T02:38:18.667Z,4.92
2017-03-08T02:38:40.496Z,4.88
2017-03-08T02:39:09.877Z,4.88
2017-03-08T02:39:43.879Z,4.83
2017-03-08T02:40:52.336Z,4.80
2017-03-08T02:41:15.170Z,4.79
2017-03-08T02:41:37.212Z,4.83
2017-03-08T02:41:59.045Z,4.83
2017-03-08T02:42:52.193Z,4.87
2017-03-08T02:43:13.922Z,4.87
2017-03-08T02:43:35.805Z,4.90
2017-03-08T02:43:57.705Z,4.90
2017-03-08T02:44:19.630Z,4.93
2017-03-08T02:44:49.089Z,4.97
2017-03-08T02:45:42.096Z,5.00
2017-03-08T02:46:03.907Z,4.99
2017-03-08T02:46:25.701Z,4.99
2017-03-08T02:46:47.552Z,4.99
2017-03-08T02:47:09.390Z,5.00
2017-03-08T02:47:36.362Z,4.99
2017-03-08T02:47:59.254Z,4.98
2017-03-08T02:48:21.296Z,4.94
2017-03-08T02:48:43.700Z,4.91
2017-03-08T02:49:14.193Z,4.89
2017-03-08T02:49:36.299Z,4.87
2017-03-08T02:49:58.145Z,4.84
2017-03-08T02:50:27.418Z,4.88
2017-03-08T02:50:49.461Z,4.89
2017-03-08T02:51:13.942Z,4.94
2017-03-08T02:51:35.686Z,4.91
2017-03-08T02:52:07.046Z,4.88
2017-03-08T02:52:44.117Z,4.88
2017-03-08T02:53:19.988Z,4.82
2017-03-08T02:53:46.365Z,4.83
2017-03-08T02:54:08.919Z,4.85
2017-03-08T02:54:57.328Z,4.76
2017-03-08T02:55:19.594Z,4.80
2017-03-08T02:55:46.268Z,4.82
2017-03-08T02:56:09.000Z,4.79
2017-03-08T02:56:35.485Z,4.82
2017-03-08T02:56:57.181Z,4.81
2017-03-08T02:57:23.665Z,4.82
2017-03-08T02:57:45.392Z,4.81
2017-03-08T02:58:21.423Z,4.84
2017-03-08T02:58:49.556Z,4.80
2017-03-08T02:59:11.274Z,4.82
2017-03-08T03:00:13.781Z,4.88
2017-03-08T03:00:35.489Z,4.88
2017-03-08T03:01:01.982Z,4.89
2017-03-08T03:01:23.680Z,4.88
2017-03-08T03:02:31.003Z,4.89
2017-03-08T03:02:52.850Z,4.91
2017-03-08T03:04:00.118Z,4.89
2017-03-08T03:04:21.829Z,4.88
2017-03-08T03:04:53.091Z,4.87
2017-03-08T03:05:14.861Z,4.90
2017-03-08T03:06:17.357Z,4.94
2017-03-08T03:06:39.082Z,4.94
2017-03-08T03:07:00.808Z,4.90
2017-03-08T03:07:25.360Z,4.93
2017-03-08T03:07:47.082Z,4.91
2017-03-08T03:08:08.830Z,4.94
2017-03-08T03:08:30.593Z,4.91
2017-03-08T03:08:52.330Z,4.91
2017-03-08T03:09:16.621Z,4.94
2017-03-08T03:09:38.333Z,4.94
2017-03-08T03:10:04.847Z,4.91
2017-03-08T03:10:40.871Z,4.89
2017-03-08T03:11:07.934Z,4.89
2017-03-08T03:11:29.681Z,4.88
2017-03-08T03:12:32.231Z,4.90
2017-03-08T03:12:53.948Z,4.87
2017-03-08T03:13:15.676Z,4.88
2017-03-08T03:13:37.461Z,4.88
2017-03-08T03:13:59.215Z,4.86
2017-03-08T03:14:25.711Z,4.88
2017-03-08T03:14:47.420Z,4.86
2017-03-08T03:15:09.136Z,4.87
2017-03-08T03:15:30.880Z,4.88
2017-03-08T03:15:52.609Z,4.92
2017-03-08T03:16:14.331Z,4.95
2017-03-08T03:16:40.813Z,4.96
2017-03-08T03:17:02.538Z,4.97
2017-03-08T03:17:24.393Z,4.98
2017-03-08T03:17:55.674Z,4.97
2017-03-08T03:18:17.419Z,4.98
2017-03-08T03:18:39.184Z,4.99
2017-03-08T03:19:00.923Z,4.97
2017-03-08T03:19:22.679Z,4.97
2017-03-08T03:19:44.410Z,4.96
2017-03-08T03:20:06.151Z,4.95
2017-03-08T03:20:27.882Z,4.95
2017-03-08T03:20:49.639Z,4.96
2017-03-08T03:21:11.396Z,4.98
2017-03-08T03:21:37.892Z,4.97
2017-03-08T03:21:59.671Z,4.96
2017-03-08T03:22:21.447Z,4.96
2017-03-08T03:22:48.002Z,4.90
2017-03-08T03:23:09.784Z,4.94
2017-03-08T03:23:41.204Z,4.95
2017-03-08T03:24:02.965Z,4.94
2017-03-08T03:24:24.723Z,4.92
2017-03-08T03:24:51.273Z,4.91
2017-03-08T03:25:13.012Z,4.91
2017-03-08T03:26:25.083Z,4.84
2017-03-08T03:26:46.821Z,4.86
2017-03-08T03:27:08.570Z,4.88
2017-03-08T03:27:39.873Z,4.88
2017-03-08T03:28:01.592Z,4.86
2017-03-08T03:28:32.877Z,4.87
2017-03-08T03:28:54.694Z,4.89
2017-03-08T03:29:25.947Z,4.88
2017-03-08T03:29:47.653Z,4.85
2017-03-08T03:30:19.124Z,4.88
2017-03-08T03:30:40.842Z,4.90
2017-03-08T03:31:12.118Z,4.85
2017-03-08T03:31:33.935Z,4.87
2017-03-08T03:32:00.415Z,4.91
2017-03-08T03:32:22.162Z,4.89
2017-03-08T03:33:24.663Z,4.92
2017-03-08T03:33:46.364Z,4.91
2017-03-08T03:34:22.529Z,4.87
2017-03-08T03:34:45.036Z,4.84
2017-03-08T03:35:06.760Z,4.82
2017-03-08T03:35:42.929Z,4.84
2017-03-08T03:36:10.046Z,4.80
2017-03-08T03:36:31.795Z,4.78
2017-03-08T03:37:07.951Z,4.79
2017-03-08T03:37:35.059Z,4.80
2017-03-08T03:37:56.838Z,4.82
2017-03-08T03:38:28.151Z,4.84
2017-03-08T03:38:49.861Z,4.82
2017-03-08T03:39:11.604Z,4.82
2017-03-08T03:39:42.895Z,4.82
2017-03-08T03:40:04.592Z,4.81
2017-03-08T03:40:26.314Z,4.84
2017-03-08T03:40:52.858Z,4.86
2017-03-08T03:41:14.606Z,4.87
2017-03-08T03:41:45.860Z,4.86
2017-03-08T03:42:07.604Z,4.84
2017-03-08T03:42:29.329Z,4.81
2017-03-08T03:43:00.591Z,4.77
2017-03-08T03:43:22.335Z,4.78
2017-03-08T03:43:53.734Z,4.77
2017-03-08T03:44:15.505Z,4.76
2017-03-08T03:44:46.762Z,4.76
2017-03-08T03:45:08.570Z,4.78
2017-03-08T03:45:39.876Z,4.80
2017-03-08T03:46:01.600Z,4.82
2017-03-08T03:46:32.909Z,4.79
2017-03-08T03:46:54.660Z,4.75
2017-03-08T03:47:25.914Z,4.73
2017-03-08T03:47:47.642Z,4.72
2017-03-08T03:48:19.029Z,4.72
2017-03-08T03:48:40.724Z,4.74
2017-03-08T03:49:02.450Z,4.73
2017-03-08T03:49:24.167Z,4.74
2017-03-08T03:49:46.000Z,4.72
2017-03-08T03:50:12.501Z,4.71
2017-03-08T03:50:34.213Z,4.73
2017-03-08T03:51:00.751Z,4.74
2017-03-08T03:51:22.461Z,4.79
2017-03-08T03:51:44.183Z,4.80
2017-03-08T03:52:10.997Z,4.83
2017-03-08T03:52:32.722Z,4.84
2017-03-08T03:52:59.267Z,4.90
2017-03-08T03:53:21.005Z,4.94
2017-03-08T03:53:47.637Z,4.90
2017-03-08T03:54:09.362Z,4.89
2017-03-08T03:54:35.863Z,4.87
2017-03-08T03:54:57.665Z,4.89
2017-03-08T03:55:24.178Z,4.90
2017-03-08T03:55:45.912Z,4.89
2017-03-08T03:56:07.745Z,4.86
2017-03-08T03:56:43.667Z,4.88
2017-03-08T03:57:10.665Z,4.83
2017-03-08T03:57:32.381Z,4.82
2017-03-08T03:58:39.665Z,4.82
2017-03-08T03:59:01.383Z,4.83
2017-03-08T03:59:32.666Z,4.80
2017-03-08T03:59:54.405Z,4.77
2017-03-08T04:00:16.136Z,4.73
2017-03-08T04:00:37.882Z,4.73
2017-03-08T04:00:59.650Z,4.78
2017-03-08T04:01:21.400Z,4.79
2017-03-08T04:01:43.151Z,4.79
2017-03-08T04:02:04.887Z,4.80
2017-03-08T04:02:26.711Z,4.82
2017-03-08T04:02:48.443Z,4.83
2017-03-08T04:03:10.177Z,4.84
2017-03-08T04:03:31.967Z,4.82
2017-03-08T04:03:53.720Z,4.82
2017-03-08T04:04:15.450Z,4.83
2017-03-08T04:04:46.708Z,4.84
2017-03-08T04:05:08.406Z,4.86
2017-03-08T04:05:39.661Z,4.88
2017-03-08T04:06:01.383Z,4.83
2017-03-08T04:06:27.866Z,4.81
2017-03-08T04:06:49.570Z,4.79
2017-03-08T04:07:20.833Z,4.78
2017-03-08T04:07:48.930Z,4.78
2017-03-08T04:08:14.180Z,4.77
2017-03-08T04:09:08.514Z,4.81
2017-03-08T04:09:35.336Z,4.84
2017-03-08T04:10:09.356Z,4.89
2017-03-08T04:10:31.448Z,4.91
2017-03-08T04:10:58.069Z,4.90
2017-03-08T04:12:06.089Z,4.80
2017-03-08T04:12:36.265Z,4.78
2017-03-08T04:12:58.634Z,4.78
2017-03-08T04:13:53.277Z,4.75
2017-03-08T04:14:19.760Z,4.75
2017-03-08T04:14:41.561Z,4.74
2017-03-08T04:15:03.321Z,4.73
2017-03-08T04:15:58.034Z,4.67
2017-03-08T04:16:29.659Z,4.70
2017-03-08T04:16:54.318Z,4.72
2017-03-08T04:17:19.108Z,4.72
2017-03-08T04:17:44.145Z,4.73
2017-03-08T04:18:15.432Z,4.76
2017-03-08T04:19:18.685Z,4.73
2017-03-08T04:21:31.090Z,4.73
2017-03-08T04:21:52.868Z,4.75
2017-03-08T04:22:14.647Z,4.75
2017-03-08T04:22:36.424Z,4.75
2017-03-08T04:22:58.336Z,4.76
2017-03-08T04:23:20.196Z,4.78
2017-03-08T04:23:42.628Z,4.80
2017-03-08T04:24:04.999Z,4.82
2017-03-08T04:24:34.437Z,4.82
2017-03-08T04:25:02.363Z,4.82
2017-03-08T04:25:28.011Z,4.87
2017-03-08T04:26:36.327Z,4.82
2017-03-08T04:26:58.176Z,4.83
2017-03-08T04:27:22.762Z,4.87
2017-03-08T04:28:41.227Z,4.82
2017-03-08T04:29:11.068Z,4.82
2017-03-08T04:29:38.496Z,4.80
2017-03-08T04:30:06.103Z,4.77
2017-03-08T04:30:57.743Z,4.78
2017-03-08T04:31:26.284Z,4.80
2017-03-08T04:31:48.391Z,4.80
2017-03-08T04:32:14.663Z,4.80
2017-03-08T04:33:06.622Z,4.76
2017-03-08T04:33:33.435Z,4.76
2017-03-08T04:33:55.183Z,4.77
2017-03-08T04:34:17.008Z,4.76
2017-03-08T04:34:43.700Z,4.75
2017-03-08T04:35:08.852Z,4.73
2017-03-08T04:36:44.692Z,4.70
2017-03-08T04:37:09.030Z,4.72
2017-03-08T04:38:02.209Z,4.69
2017-03-08T04:38:26.457Z,4.69
2017-03-08T04:38:54.466Z,4.72
2017-03-08T04:39:18.704Z,4.71
2017-03-08T04:39:40.879Z,4.70
2017-03-08T04:40:32.743Z,4.71
2017-03-08T04:40:57.981Z,4.69
2017-03-08T04:41:20.673Z,4.72
2017-03-08T04:41:49.924Z,4.71
2017-03-08T04:42:11.732Z,4.70
2017-03-08T04:42:33.884Z,4.68
2017-03-08T04:42:55.858Z,4.68
2017-03-08T04:43:17.866Z,4.71
2017-03-08T04:43:39.588Z,4.73
2017-03-08T04:44:06.263Z,4.73
2017-03-08T04:44:55.327Z,4.73
2017-03-08T04:45:21.637Z,4.71
2017-03-08T04:45:46.429Z,4.70
2017-03-08T04:46:10.734Z,4.68
2017-03-08T04:46:32.977Z,4.64
2017-03-08T04:47:00.049Z,4.62
2017-03-08T04:47:22.493Z,4.64
2017-03-08T04:48:12.722Z,4.61
2017-03-08T04:48:34.728Z,4.60
2017-03-08T04:48:56.596Z,4.61
2017-03-08T04:49:18.480Z,4.61
2017-03-08T04:49:40.263Z,4.59
2017-03-08T04:50:02.355Z,4.60
2017-03-08T04:50:24.221Z,4.59
2017-03-08T04:50:46.056Z,4.59
2017-03-08T04:51:07.906Z,4.61
2017-03-08T04:51:32.628Z,4.58
2017-03-08T04:51:54.744Z,4.57
2017-03-08T04:52:22.319Z,4.58
2017-03-08T04:52:44.340Z,4.55
2017-03-08T04:53:06.181Z,4.55
2017-03-08T04:53:28.301Z,4.51
2017-03-08T04:53:50.122Z,4.49
2017-03-08T04:54:13.059Z,4.52
2017-03-08T04:54:35.615Z,4.54
2017-03-08T04:54:57.521Z,4.57
2017-03-08T04:55:19.390Z,4.60
2017-03-08T04:55:41.246Z,4.59
2017-03-08T04:56:03.060Z,4.55
2017-03-08T04:56:28.144Z,4.53
2017-03-08T04:56:50.205Z,4.55
2017-03-08T04:57:14.905Z,4.53
2017-03-08T04:57:40.481Z,4.51
2017-03-08T04:58:02.370Z,4.50
2017-03-08T04:58:25.147Z,4.52
2017-03-08T04:58:47.044Z,4.52
2017-03-08T04:59:09.091Z,4.53
2017-03-08T04:59:34.175Z,4.56
2017-03-08T05:00:22.865Z,4.57
2017-03-08T05:00:44.801Z,4.53
2017-03-08T05:01:09.774Z,4.57
2017-03-08T05:01:31.666Z,4.55
2017-03-08T05:02:52.337Z,4.61
2017-03-08T05:03:59.701Z,4.58
2017-03-08T05:04:22.580Z,4.59
2017-03-08T05:04:45.178Z,4.60
2017-03-08T05:05:15.460Z,4.57
2017-03-08T05:05:41.990Z,4.58
2017-03-08T05:06:31.015Z,4.59
2017-03-08T05:06:53.322Z,4.58
2017-03-08T05:07:16.194Z,4.56
2017-03-08T05:07:38.123Z,4.54
2017-03-08T05:08:08.271Z,4.55
2017-03-08T05:09:10.790Z,4.58
2017-03-08T05:09:35.095Z,4.61
2017-03-08T05:09:57.480Z,4.65
2017-03-08T05:10:24.862Z,4.61
2017-03-08T05:10:51.333Z,4.62
2017-03-08T05:11:44.517Z,4.66
2017-03-08T05:12:09.653Z,4.65
2017-03-08T05:12:31.369Z,4.65
2017-03-08T05:13:19.783Z,4.69
2017-03-08T05:13:46.308Z,4.70
2017-03-08T05:14:08.186Z,4.72
2017-03-08T05:14:29.995Z,4.74
2017-03-08T05:14:51.916Z,4.77
2017-03-08T05:15:27.987Z,4.86
2017-03-08T05:16:42.174Z,4.82
2017-03-08T05:17:45.091Z,4.78
2017-03-08T05:18:06.840Z,4.79
2017-03-08T05:18:29.002Z,4.76
2017-03-08T05:18:53.780Z,4.78
2017-03-08T05:19:15.630Z,4.79
2017-03-08T05:19:37.445Z,4.79
2017-03-08T05:19:59.145Z,4.76
2017-03-08T05:20:20.839Z,4.76
2017-03-08T05:20:45.360Z,4.76
2017-03-08T05:21:07.061Z,4.74
2017-03-08T05:21:28.779Z,4.74
2017-03-08T05:21:50.687Z,4.73
2017-03-08T05:22:12.417Z,4.75
2017-03-08T05:22:34.145Z,4.77
2017-03-08T05:23:10.165Z,4.79
2017-03-08T05:23:37.182Z,4.79
2017-03-08T05:23:58.884Z,4.78
2017-03-08T05:24:34.914Z,4.76
2017-03-08T05:25:01.981Z,4.72
2017-03-08T05:25:23.713Z,4.72
2017-03-08T05:25:54.971Z,4.71
2017-03-08T05:26:16.706Z,4.70
2017-03-08T05:26:43.192Z,4.72
2017-03-08T05:27:04.889Z,4.72
2017-03-08T05:27:26.635Z,4.74
2017-03-08T05:27:53.148Z,4.76
2017-03-08T05:28:14.871Z,4.80
2017-03-08T05:28:36.633Z,4.80
2017-03-08T05:29:03.129Z,4.82
2017-03-08T05:29:24.830Z,4.80
2017-03-08T05:30:00.859Z,4.81
2017-03-08T05:30:27.860Z,4.80
2017-03-08T05:30:49.567Z,4.82
2017-03-08T05:31:11.279Z,4.80
2017-03-08T05:31:33.011Z,4.83
2017-03-08T05:31:54.736Z,4.88
2017-03-08T05:33:02.021Z,4.92
2017-03-08T05:33:23.722Z,4.92
2017-03-08T05:33:45.432Z,4.90
2017-03-08T05:34:16.684Z,4.87
2017-03-08T05:34:38.382Z,4.87
2017-03-08T05:35:04.865Z,4.85
2017-03-08T05:35:26.573Z,4.83
2017-03-08T05:35:48.304Z,4.81
2017-03-08T05:36:19.570Z,4.79
2017-03-08T05:36:41.293Z,4.83
2017-03-08T05:37:07.775Z,4.88
2017-03-08T05:37:29.519Z,4.90
2017-03-08T05:38:36.891Z,4.85
2017-03-08T05:38:58.651Z,4.86
2017-03-08T05:39:34.798Z,4.89
2017-03-08T05:40:01.863Z,4.92
2017-03-08T05:40:23.607Z,4.91
2017-03-08T05:40:50.216Z,4.92
2017-03-08T05:41:11.975Z,4.94
2017-03-08T05:42:19.497Z,4.92
2017-03-08T05:42:41.272Z,4.92
2017-03-08T05:43:17.308Z,4.95
2017-03-08T05:43:44.406Z,4.94
2017-03-08T05:44:06.100Z,4.93
2017-03-08T05:44:32.678Z,4.91
2017-03-08T05:44:59.182Z,4.90
2017-03-08T05:45:30.472Z,4.94
2017-03-08T05:45:52.216Z,4.93
2017-03-08T05:46:14.161Z,4.94
2017-03-08T05:46:40.655Z,4.94
2017-03-08T05:47:02.410Z,4.94
2017-03-08T05:47:38.680Z,4.92
2017-03-08T05:48:36.923Z,4.92
2017-03-08T05:49:08.178Z,4.94
2017-03-08T05:49:29.935Z,4.94
2017-03-08T05:49:51.624Z,4.94
2017-03-08T05:50:13.329Z,4.93
2017-03-08T05:50:35.054Z,4.91
2017-03-08T05:50:56.801Z,4.94
2017-03-08T05:51:18.533Z,4.96
2017-03-08T05:51:40.268Z,4.98
2017-03-08T05:52:01.996Z,5.01
2017-03-08T05:52:23.740Z,5.04
2017-03-08T05:52:45.505Z,5.05
2017-03-08T05:53:07.257Z,5.02
2017-03-08T05:53:28.990Z,5.00
2017-03-08T05:53:50.699Z,5.01
2017-03-08T05:54:12.426Z,5.04
2017-03-08T05:54:43.685Z,5.02
2017-03-08T05:55:05.387Z,5.06
2017-03-08T05:55:31.883Z,5.09
2017-03-08T05:55:53.603Z,5.10
2017-03-08T05:56:20.085Z,5.15
2017-03-08T05:56:41.824Z,5.14
2017-03-08T05:57:06.338Z,5.11
2017-03-08T05:57:28.060Z,5.07
2017-03-08T05:57:49.864Z,5.07
2017-03-08T05:58:16.353Z,5.04
2017-03-08T05:58:38.078Z,5.02
2017-03-08T05:59:04.651Z,5.01
2017-03-08T05:59:26.439Z,5.03
2017-03-08T06:00:33.934Z,5.08
2017-03-08T06:00:55.675Z,5.07
2017-03-08T06:01:17.387Z,5.05
2017-03-08T06:01:48.752Z,5.06
2017-03-08T06:02:10.462Z,5.07
2017-03-08T06:03:17.803Z,5.13
2017-03-08T06:03:39.516Z,5.10
2017-03-08T06:04:46.892Z,5.16
2017-03-08T06:05:08.623Z,5.17
2017-03-08T06:05:35.126Z,5.18
2017-03-08T06:05:56.846Z,5.13
2017-03-08T06:06:18.652Z,5.15
2017-03-08T06:06:45.133Z,5.15
2017-03-08T06:07:06.842Z,5.14
2017-03-08T06:07:33.401Z,5.11
2017-03-08T06:07:55.134Z,5.11
2017-03-08T06:09:02.505Z,5.13
2017-03-08T06:09:24.210Z,5.13
2017-03-08T06:09:45.935Z,5.12
2017-03-08T06:10:12.436Z,5.08
2017-03-08T06:10:34.151Z,5.10